Time;durP1;ratioP1;P1;durP2;ratioP2;P2;SDS_P1;SDS_P2;PMS_P1;PMS_P2;Temp;Humidity;BMP_temperature;BMP_pressure;BME280_temperature;BME280_humidity;BME280_pressure;Samples;Min_cycle;Max_cycle;Signal;HPM_P1;HPM_P2
2021/05/08 00:02:00;;;;;;;14.68;10.20;;;7.10;99.90;;;;;;5070165;28;20032;-70
2021/05/08 00:04:27;;;;;;;12.50;9.57;;;7.20;99.90;;;;;;5064527;28;20077;-70
2021/05/08 00:06:53;;;;;;;12.45;10.15;;;7.10;99.90;;;;;;5062900;28;20133;-70
2021/05/08 00:09:19;;;;;;;12.38;9.00;;;7.00;99.90;;;;;;5067396;28;20119;-70
2021/05/08 00:11:44;;;;;;;9.90;8.85;;;7.00;99.90;;;;;;5073932;28;20074;-70
2021/05/08 00:14:10;;;;;;;13.57;8.30;;;6.90;99.90;;;;;;5052636;28;20035;-70
2021/05/08 00:16:37;;;;;;;13.25;8.07;;;6.90;99.90;;;;;;5074932;28;20485;-70
2021/05/08 00:19:02;;;;;;;15.68;9.20;;;6.80;99.90;;;;;;5065839;28;20024;-70
2021/05/08 00:21:28;;;;;;;17.30;9.80;;;6.90;99.90;;;;;;5071709;28;20527;-70
2021/05/08 00:23:54;;;;;;;14.30;9.27;;;7.00;99.90;;;;;;5072467;28;20020;-70
2021/05/08 00:26:20;;;;;;;16.25;9.40;;;7.00;99.90;;;;;;5066897;28;20728;-71
2021/05/08 00:28:46;;;;;;;12.38;9.30;;;6.90;99.90;;;;;;5070619;28;20115;-70
2021/05/08 00:31:11;;;;;;;13.18;10.13;;;6.90;99.90;;;;;;5058911;28;20109;-70
2021/05/08 00:33:37;;;;;;;12.68;9.50;;;6.80;99.90;;;;;;5066362;28;20033;-70
2021/05/08 00:36:05;;;;;;;10.70;8.95;;;6.80;99.90;;;;;;5065619;28;20037;-70
2021/05/08 00:38:30;;;;;;;12.07;8.60;;;6.70;99.90;;;;;;5063890;28;20036;-70
2021/05/08 00:40:56;;;;;;;13.65;8.77;;;6.70;99.90;;;;;;5060451;28;20029;-70
2021/05/08 00:43:22;;;;;;;12.68;8.95;;;6.70;99.90;;;;;;5071474;28;20021;-70
2021/05/08 00:45:47;;;;;;;12.35;8.82;;;6.70;99.90;;;;;;5045303;28;20027;-70
2021/05/08 00:48:14;;;;;;;13.52;9.35;;;6.70;99.90;;;;;;5051911;28;20438;-70
2021/05/08 00:50:40;;;;;;;10.82;7.97;;;6.70;99.90;;;;;;5067985;28;20033;-70
2021/05/08 00:53:08;;;;;;;13.73;9.13;;;6.70;99.90;;;;;;5067620;28;20042;-70
2021/05/08 00:55:37;;;;;;;13.30;9.40;;;6.70;99.90;;;;;;5071147;28;20046;-70
2021/05/08 00:58:06;;;;;;;11.15;8.35;;;6.70;99.90;;;;;;5067751;28;20033;-70
2021/05/08 01:00:33;;;;;;;11.13;8.43;;;6.70;99.90;;;;;;5040040;28;20016;-70
2021/05/08 01:02:59;;;;;;;12.38;8.70;;;6.60;99.90;;;;;;5065981;28;20051;-70
2021/05/08 01:05:26;;;;;;;10.65;8.75;;;6.70;99.90;;;;;;5068109;28;20465;-70
2021/05/08 01:07:52;;;;;;;13.23;8.15;;;6.70;99.90;;;;;;5068130;28;20043;-69
2021/05/08 01:10:18;;;;;;;12.25;7.47;;;6.70;99.90;;;;;;5047441;28;20465;-69
2021/05/08 01:12:44;;;;;;;10.77;7.78;;;6.70;99.90;;;;;;5067914;28;20032;-70
2021/05/08 01:15:13;;;;;;;10.15;7.35;;;6.60;99.90;;;;;;5069303;28;20108;-70
2021/05/08 01:17:41;;;;;;;13.32;8.88;;;6.60;99.90;;;;;;5063048;28;20082;-69
2021/05/08 01:20:09;;;;;;;10.45;8.10;;;6.70;99.90;;;;;;5046646;28;20017;-69
2021/05/08 01:22:35;;;;;;;11.55;8.40;;;6.70;99.90;;;;;;5065865;28;20032;-69
2021/05/08 01:25:01;;;;;;;14.15;7.68;;;6.70;99.90;;;;;;5066765;28;20070;-69
2021/05/08 01:27:26;;;;;;;12.75;8.27;;;6.70;99.90;;;;;;5052524;28;20016;-70
2021/05/08 01:29:52;;;;;;;12.00;7.55;;;6.70;99.90;;;;;;5052675;28;20461;-69
2021/05/08 01:32:18;;;;;;;11.52;7.93;;;6.70;99.90;;;;;;5067549;28;20016;-69
2021/05/08 01:34:43;;;;;;;13.50;8.30;;;6.70;99.90;;;;;;5064031;28;20059;-69
2021/05/08 01:37:09;;;;;;;14.50;8.48;;;6.70;99.90;;;;;;5067392;28;20028;-69
2021/05/08 01:39:35;;;;;;;10.05;8.05;;;6.80;99.90;;;;;;5070967;28;20444;-69
2021/05/08 01:42:00;;;;;;;13.45;8.60;;;6.70;99.90;;;;;;5071955;28;20021;-70
2021/05/08 01:44:26;;;;;;;14.10;8.55;;;6.70;99.90;;;;;;5069927;28;20082;-69
2021/05/08 01:46:53;;;;;;;14.25;10.07;;;6.70;99.90;;;;;;5065805;28;20499;-70
2021/05/08 01:49:19;;;;;;;10.63;8.48;;;6.60;99.90;;;;;;5069073;28;20037;-69
2021/05/08 01:51:45;;;;;;;13.82;8.45;;;6.60;99.90;;;;;;5066983;28;20619;-69
2021/05/08 01:54:15;;;;;;;14.35;9.27;;;6.60;99.90;;;;;;5069411;28;20028;-70
2021/05/08 01:56:40;;;;;;;11.63;8.60;;;6.70;99.90;;;;;;5067966;28;20025;-69
2021/05/08 01:59:06;;;;;;;12.13;7.82;;;6.70;99.90;;;;;;5071084;28;20039;-70
2021/05/08 02:01:32;;;;;;;12.93;8.00;;;6.70;99.90;;;;;;5074068;28;20400;-69
2021/05/08 02:03:57;;;;;;;10.95;8.15;;;6.60;99.90;;;;;;5070178;28;20098;-70
2021/05/08 02:06:23;;;;;;;13.82;8.18;;;6.60;99.90;;;;;;5060269;28;20028;-69
2021/05/08 02:08:50;;;;;;;14.27;8.48;;;6.70;99.90;;;;;;5073033;28;20490;-69
2021/05/08 02:11:16;;;;;;;10.68;8.43;;;6.60;99.90;;;;;;5061486;28;20025;-69
2021/05/08 02:13:41;;;;;;;13.48;9.65;;;6.60;99.90;;;;;;5068155;28;20089;-70
2021/05/08 02:16:07;;;;;;;14.13;9.60;;;6.70;99.90;;;;;;5072840;28;20535;-70
2021/05/08 02:18:33;;;;;;;15.68;8.82;;;6.80;99.90;;;;;;5072133;28;20039;-69
2021/05/08 02:20:58;;;;;;;13.77;8.77;;;6.80;99.90;;;;;;5049354;28;20029;-69
2021/05/08 02:23:24;;;;;;;13.30;9.85;;;6.80;99.90;;;;;;5071980;28;20028;-70
2021/05/08 02:25:50;;;;;;;13.52;8.52;;;6.70;99.90;;;;;;5071591;28;20940;-69
2021/05/08 02:28:16;;;;;;;13.02;9.77;;;6.80;99.90;;;;;;5041037;28;20039;-69
2021/05/08 02:30:42;;;;;;;12.13;9.25;;;6.80;99.90;;;;;;5067407;28;20461;-69
2021/05/08 02:33:09;;;;;;;14.88;9.20;;;6.80;99.90;;;;;;5068792;28;20036;-69
2021/05/08 02:35:36;;;;;;;15.30;9.68;;;6.80;99.90;;;;;;5072518;28;20028;-70
2021/05/08 02:38:02;;;;;;;12.18;9.02;;;6.70;99.90;;;;;;5064200;28;20296;-70
2021/05/08 02:40:31;;;;;;;12.80;9.85;;;6.80;99.90;;;;;;5068373;28;20036;-70
2021/05/08 02:42:57;;;;;;;14.85;9.80;;;6.80;99.90;;;;;;5069755;28;20029;-69
2021/05/08 02:45:23;;;;;;;14.13;10.32;;;6.80;99.90;;;;;;5079901;28;20393;-70
2021/05/08 02:47:50;;;;;;;16.65;11.00;;;6.80;99.90;;;;;;5058180;28;20044;-70
2021/05/08 02:50:17;;;;;;;17.95;11.07;;;6.70;99.90;;;;;;5065574;28;20044;-70
2021/05/08 02:52:44;;;;;;;13.73;11.10;;;6.70;99.90;;;;;;5068800;28;20025;-70
2021/05/08 02:55:10;;;;;;;12.73;9.88;;;6.60;99.90;;;;;;5071759;28;20032;-70
2021/05/08 02:57:37;;;;;;;14.65;9.75;;;6.60;99.90;;;;;;5071667;28;20075;-69
2021/05/08 03:00:08;;;;;;;16.65;10.80;;;6.60;99.90;;;;;;5063124;28;20104;-70
2021/05/08 03:02:34;;;;;;;17.58;10.50;;;6.50;99.90;;;;;;5062612;28;20020;-70
2021/05/08 03:05:00;;;;;;;18.10;12.55;;;6.50;99.90;;;;;;5066601;28;20067;-69
2021/05/08 03:07:25;;;;;;;17.67;12.65;;;6.30;99.90;;;;;;5046752;28;20493;-69
2021/05/08 03:09:51;;;;;;;19.13;13.18;;;6.40;99.90;;;;;;5064596;28;20374;-69
2021/05/08 03:12:17;;;;;;;17.17;13.00;;;6.30;99.90;;;;;;5069594;28;20078;-69
2021/05/08 03:14:42;;;;;;;19.65;12.85;;;6.30;99.90;;;;;;5064832;28;20027;-69
2021/05/08 03:17:08;;;;;;;21.70;12.93;;;6.20;99.90;;;;;;5071519;28;20024;-69
2021/05/08 03:19:34;;;;;;;19.67;12.57;;;6.30;99.90;;;;;;5059039;28;20095;-69
2021/05/08 03:22:00;;;;;;;24.17;13.90;;;6.30;99.90;;;;;;5062242;28;20021;-68
2021/05/08 03:24:26;;;;;;;20.77;13.07;;;6.40;99.90;;;;;;5057207;28;20086;-69
2021/05/08 03:26:51;;;;;;;19.08;13.43;;;6.40;99.90;;;;;;5058584;28;20051;-69
2021/05/08 03:29:17;;;;;;;21.95;14.88;;;6.40;99.90;;;;;;5057530;28;20036;-70
2021/05/08 03:31:43;;;;;;;18.55;13.52;;;6.30;99.90;;;;;;5059256;28;20030;-69
2021/05/08 03:34:08;;;;;;;19.83;13.85;;;6.40;99.90;;;;;;5060199;28;20021;-69
2021/05/08 03:36:34;;;;;;;22.15;15.45;;;6.20;99.90;;;;;;5060976;28;20047;-69
2021/05/08 03:38:59;;;;;;;22.65;15.18;;;6.30;99.90;;;;;;5060103;28;20037;-68
2021/05/08 03:41:25;;;;;;;21.60;14.02;;;6.30;99.90;;;;;;5056922;28;20025;-69
2021/05/08 03:43:51;;;;;;;20.05;14.82;;;6.10;99.90;;;;;;5061052;28;20040;-69
2021/05/08 03:46:16;;;;;;;19.67;14.50;;;6.20;99.90;;;;;;5055557;28;20043;-70
2021/05/08 03:48:42;;;;;;;24.35;16.30;;;6.20;99.90;;;;;;5059574;28;20106;-68
2021/05/08 03:51:08;;;;;;;22.27;14.93;;;6.40;99.90;;;;;;5066686;28;20028;-69
2021/05/08 03:53:33;;;;;;;20.23;14.68;;;6.30;99.90;;;;;;5064850;28;20028;-69
2021/05/08 03:56:01;;;;;;;21.13;14.75;;;6.30;99.90;;;;;;5060641;28;20021;-69
2021/05/08 03:58:30;;;;;;;22.13;15.25;;;6.30;99.90;;;;;;5064246;28;20024;-69
2021/05/08 04:00:57;;;;;;;20.95;15.50;;;6.40;99.90;;;;;;5054615;28;20466;-69
2021/05/08 04:03:23;;;;;;;24.88;15.23;;;6.50;99.90;;;;;;5061277;28;20021;-69
2021/05/08 04:05:50;;;;;;;23.33;17.08;;;6.50;99.90;;;;;;5051893;28;20028;-69
2021/05/08 04:08:16;;;;;;;26.02;16.48;;;6.50;99.90;;;;;;5060623;28;20400;-69
2021/05/08 04:10:45;;;;;;;23.55;15.65;;;6.40;99.90;;;;;;5057316;28;20033;-69
2021/05/08 04:13:12;;;;;;;22.42;16.13;;;6.40;99.90;;;;;;5063148;28;20021;-69
2021/05/08 04:15:37;;;;;;;26.75;16.45;;;6.40;99.90;;;;;;5059576;28;20607;-69
2021/05/08 04:18:03;;;;;;;23.48;16.65;;;6.30;99.90;;;;;;5056053;28;20096;-69
2021/05/08 04:20:29;;;;;;;23.90;16.60;;;6.40;99.90;;;;;;5041271;28;20111;-68
2021/05/08 04:22:55;;;;;;;25.08;15.18;;;6.50;99.90;;;;;;5060798;28;20226;-68
2021/05/08 04:25:20;;;;;;;23.33;16.02;;;6.50;99.90;;;;;;5058546;28;20025;-69
2021/05/08 04:27:46;;;;;;;22.63;15.32;;;6.50;99.90;;;;;;5059220;28;20028;-69
2021/05/08 04:30:12;;;;;;;21.63;14.85;;;6.60;99.90;;;;;;5060475;28;20044;-69
2021/05/08 04:32:39;;;;;;;24.80;16.85;;;6.40;99.90;;;;;;5060516;28;20017;-69
2021/05/08 04:35:05;;;;;;;23.52;15.30;;;6.50;99.90;;;;;;5062933;28;20027;-68
2021/05/08 04:37:30;;;;;;;21.27;14.75;;;6.50;99.90;;;;;;5062054;28;20496;-68
2021/05/08 04:39:56;;;;;;;22.40;13.75;;;6.60;99.90;;;;;;5047524;28;20033;-69
2021/05/08 04:42:22;;;;;;;20.90;14.25;;;6.60;99.90;;;;;;5056198;28;20032;-68
2021/05/08 04:44:48;;;;;;;21.80;14.80;;;6.70;99.90;;;;;;5061901;28;20036;-70
2021/05/08 04:47:14;;;;;;;19.58;14.43;;;6.80;99.90;;;;;;5039871;28;20029;-69
2021/05/08 04:49:40;;;;;;;22.30;15.18;;;6.80;99.90;;;;;;5060070;28;20496;-69
2021/05/08 04:52:06;;;;;;;21.15;14.80;;;6.80;99.90;;;;;;5040928;28;20031;-68
2021/05/08 04:54:32;;;;;;;19.17;14.75;;;6.80;99.90;;;;;;5060644;28;20107;-69
2021/05/08 04:56:57;;;;;;;23.08;16.77;;;6.90;99.90;;;;;;5061395;28;20095;-69
2021/05/08 04:59:23;;;;;;;23.45;16.58;;;6.90;99.90;;;;;;5062595;28;20034;-69
2021/05/08 05:01:49;;;;;;;22.50;14.85;;;6.90;99.90;;;;;;5047678;28;20549;-69
2021/05/08 05:04:14;;;;;;;21.90;15.90;;;7.00;99.90;;;;;;5059426;28;20078;-69
2021/05/08 05:06:40;;;;;;;23.80;15.70;;;7.00;99.90;;;;;;5058659;28;20025;-69
2021/05/08 05:09:06;;;;;;;26.13;15.32;;;7.00;99.90;;;;;;5061411;28;20064;-69
2021/05/08 05:11:31;;;;;;;20.45;15.45;;;7.00;99.90;;;;;;5063090;28;20436;-69
2021/05/08 05:13:57;;;;;;;24.30;16.42;;;7.10;99.90;;;;;;5067020;28;20029;-69
2021/05/08 05:16:23;;;;;;;21.13;14.60;;;7.00;99.90;;;;;;5073114;28;20055;-70
2021/05/08 05:18:48;;;;;;;23.92;16.92;;;7.10;99.90;;;;;;5064521;28;20021;-69
2021/05/08 05:21:14;;;;;;;20.92;15.18;;;7.20;99.90;;;;;;5066307;28;20040;-69
2021/05/08 05:23:40;;;;;;;22.35;14.50;;;7.20;99.90;;;;;;5065905;28;20512;-70
2021/05/08 05:26:06;;;;;;;19.50;13.32;;;7.20;99.90;;;;;;5065100;28;20112;-69
2021/05/08 05:28:32;;;;;;;19.25;13.77;;;7.30;99.90;;;;;;5064810;28;20043;-70
2021/05/08 05:30:59;;;;;;;20.35;14.73;;;7.40;99.90;;;;;;5072866;28;20025;-70
2021/05/08 05:33:25;;;;;;;21.63;15.35;;;7.40;99.90;;;;;;5070682;28;20120;-70
2021/05/08 05:35:56;;;;;;;18.95;14.23;;;7.50;99.90;;;;;;5078924;28;20108;-69
2021/05/08 05:38:23;;;;;;;21.40;13.15;;;7.60;99.90;;;;;;5069686;28;20020;-70
2021/05/08 05:40:52;;;;;;;17.95;12.45;;;7.60;99.90;;;;;;5075725;28;20041;-68
2021/05/08 05:43:18;;;;;;;18.25;12.63;;;7.70;99.90;;;;;;5084880;28;20024;-69
2021/05/08 05:45:44;;;;;;;17.45;13.15;;;7.80;99.90;;;;;;5073624;28;20035;-69
2021/05/08 05:48:10;;;;;;;16.55;12.98;;;7.90;99.90;;;;;;5057317;28;20029;-68
2021/05/08 05:50:38;;;;;;;18.85;13.82;;;8.10;99.90;;;;;;5069586;28;20035;-69
2021/05/08 05:53:04;;;;;;;17.52;11.20;;;8.30;99.90;;;;;;5064912;28;20021;-69
2021/05/08 05:55:31;;;;;;;14.70;10.80;;;8.40;99.90;;;;;;5073865;28;20036;-68
2021/05/08 05:57:56;;;;;;;15.82;10.80;;;8.40;99.90;;;;;;5067854;28;20506;-69
2021/05/08 06:00:23;;;;;;;17.38;11.18;;;8.50;99.90;;;;;;5071898;28;20036;-69
2021/05/08 06:02:48;;;;;;;13.30;10.15;;;8.50;99.90;;;;;;5070513;28;20036;-69
2021/05/08 06:05:14;;;;;;;18.60;10.90;;;8.60;99.90;;;;;;5067914;28;20029;-69
2021/05/08 06:07:41;;;;;;;14.90;9.75;;;8.60;99.90;;;;;;5073834;28;20063;-69
2021/05/08 06:10:08;;;;;;;15.80;10.55;;;8.80;99.90;;;;;;5072182;28;20132;-69
2021/05/08 06:12:34;;;;;;;13.73;10.50;;;8.90;99.90;;;;;;5068010;28;20087;-69
2021/05/08 06:14:59;;;;;;;11.85;9.30;;;8.90;99.90;;;;;;5071708;28;20422;-69
2021/05/08 06:17:25;;;;;;;13.77;9.63;;;9.00;99.90;;;;;;5070082;28;20054;-69
2021/05/08 06:19:51;;;;;;;13.30;8.80;;;9.20;99.90;;;;;;5063584;28;20040;-69
2021/05/08 06:22:17;;;;;;;11.05;8.60;;;9.30;99.90;;;;;;5072632;28;20564;-69
2021/05/08 06:24:43;;;;;;;11.13;7.57;;;9.40;99.90;;;;;;5070636;28;20051;-69
2021/05/08 06:27:09;;;;;;;13.00;7.10;;;9.60;99.90;;;;;;5063192;28;20894;-70
2021/05/08 06:29:36;;;;;;;10.63;6.88;;;9.60;99.90;;;;;;5067458;28;20040;-69
2021/05/08 06:32:03;;;;;;;12.95;7.10;;;9.60;99.90;;;;;;5075064;28;20021;-69
2021/05/08 06:34:29;;;;;;;8.70;6.65;;;9.70;99.90;;;;;;5069196;28;20067;-71
2021/05/08 06:36:54;;;;;;;12.00;6.68;;;9.80;99.90;;;;;;5066014;28;20094;-70
2021/05/08 06:39:22;;;;;;;10.88;7.07;;;9.90;99.90;;;;;;5051548;28;20037;-70
2021/05/08 06:41:47;;;;;;;10.05;7.10;;;9.80;99.90;;;;;;5064918;28;20028;-69
2021/05/08 06:44:13;;;;;;;11.45;6.53;;;9.90;99.90;;;;;;5065670;28;20534;-70
2021/05/08 06:46:39;;;;;;;8.15;6.15;;;10.00;99.90;;;;;;5066511;28;20021;-70
2021/05/08 06:49:05;;;;;;;8.05;6.18;;;10.00;99.90;;;;;;5052250;28;20473;-70
2021/05/08 06:51:31;;;;;;;14.02;6.38;;;10.00;99.90;;;;;;5066829;28;20095;-70
2021/05/08 06:53:56;;;;;;;9.18;5.80;;;10.10;99.90;;;;;;5075662;28;20111;-69
2021/05/08 06:56:23;;;;;;;9.05;5.60;;;10.10;99.90;;;;;;5071114;28;20024;-70
2021/05/08 06:58:50;;;;;;;8.85;5.95;;;10.20;99.90;;;;;;5070427;28;20025;-70
2021/05/08 07:01:16;;;;;;;9.98;4.93;;;10.30;99.90;;;;;;5058204;28;20131;-70
2021/05/08 07:03:42;;;;;;;8.90;5.10;;;10.40;99.90;;;;;;5077144;28;20028;-70
2021/05/08 07:06:08;;;;;;;12.07;5.32;;;10.40;99.90;;;;;;5053317;28;20021;-70
2021/05/08 07:08:34;;;;;;;8.77;5.50;;;10.50;99.90;;;;;;5073738;28;20473;-70
2021/05/08 07:10:59;;;;;;;7.50;5.03;;;10.60;99.90;;;;;;5070640;28;20059;-70
2021/05/08 07:13:25;;;;;;;11.40;6.13;;;10.70;99.90;;;;;;5074331;28;20029;-70
2021/05/08 07:15:50;;;;;;;8.57;5.20;;;10.80;99.90;;;;;;5070648;28;20124;-70
2021/05/08 07:18:16;;;;;;;7.93;4.90;;;10.80;99.90;;;;;;5069828;28;20027;-70
2021/05/08 07:20:42;;;;;;;8.90;4.97;;;11.00;99.90;;;;;;5067054;28;20020;-70
2021/05/08 07:23:08;;;;;;;8.73;4.72;;;10.90;99.90;;;;;;5063371;28;20063;-70
2021/05/08 07:25:38;;;;;;;7.22;4.40;;;11.00;99.90;;;;;;5076292;28;20029;-70
2021/05/08 07:28:12;;;;;;;10.15;4.70;;;11.10;99.90;;;;;;5063408;28;20381;-71
2021/05/08 07:30:39;;;;;;;7.18;4.38;;;11.10;99.90;;;;;;5080105;28;20051;-70
2021/05/08 07:33:04;;;;;;;6.55;4.20;;;11.30;99.90;;;;;;5075238;28;20021;-70
2021/05/08 07:35:30;;;;;;;7.28;4.47;;;11.30;99.90;;;;;;5077959;28;20087;-70
2021/05/08 07:37:56;;;;;;;10.70;4.22;;;11.30;99.90;;;;;;5068880;28;20053;-70
2021/05/08 07:40:22;;;;;;;6.45;4.50;;;11.40;99.90;;;;;;5056545;28;20032;-71
2021/05/08 07:42:48;;;;;;;6.88;3.70;;;11.40;99.90;;;;;;5046757;28;20021;-71
2021/05/08 07:45:14;;;;;;;6.97;4.03;;;11.60;99.90;;;;;;5059701;28;20142;-70
2021/05/08 07:47:40;;;;;;;8.23;4.70;;;11.50;99.90;;;;;;5061281;28;20036;-70
2021/05/08 07:50:07;;;;;;;8.55;4.60;;;11.60;99.90;;;;;;5063295;28;20028;-71
2021/05/08 07:52:33;;;;;;;7.82;4.93;;;11.60;99.90;;;;;;5068293;28;20009;-70
2021/05/08 07:54:59;;;;;;;11.98;4.43;;;11.80;99.90;;;;;;5065047;28;20031;-70
2021/05/08 07:57:25;;;;;;;12.27;5.07;;;12.00;99.90;;;;;;5058237;28;20409;-70
2021/05/08 07:59:50;;;;;;;7.63;4.35;;;12.10;99.90;;;;;;5060295;28;20065;-69
2021/05/08 08:02:16;;;;;;;6.55;4.13;;;12.10;99.90;;;;;;5067112;28;20020;-70
2021/05/08 08:04:41;;;;;;;5.50;3.97;;;12.10;99.90;;;;;;5070272;28;20024;-70
2021/05/08 08:07:07;;;;;;;7.47;3.88;;;12.20;99.90;;;;;;5063969;28;20034;-71
2021/05/08 08:09:33;;;;;;;11.32;3.97;;;12.30;99.90;;;;;;5070794;28;20507;-71
2021/05/08 08:11:58;;;;;;;6.72;3.97;;;12.40;99.90;;;;;;5076872;28;20031;-70
2021/05/08 08:14:24;;;;;;;7.90;3.60;;;12.40;99.90;;;;;;5069753;28;20043;-70
2021/05/08 08:16:50;;;;;;;8.98;3.42;;;12.50;99.90;;;;;;5067865;28;20104;-71
2021/05/08 08:19:15;;;;;;;7.53;4.45;;;12.50;99.90;;;;;;5061289;28;20040;-70
2021/05/08 08:21:41;;;;;;;6.53;3.58;;;12.50;99.90;;;;;;5072620;28;20380;-71
2021/05/08 08:24:07;;;;;;;7.65;4.15;;;12.60;99.90;;;;;;5074203;28;20032;-73
2021/05/08 08:26:33;;;;;;;8.55;3.78;;;12.60;99.90;;;;;;5061770;28;20017;-73
2021/05/08 08:28:59;;;;;;;6.85;4.00;;;12.80;99.90;;;;;;5072312;28;20432;-73
2021/05/08 08:31:24;;;;;;;7.50;3.40;;;12.90;99.90;;;;;;5069921;28;20032;-71
2021/05/08 08:33:50;;;;;;;5.82;3.95;;;12.90;99.90;;;;;;5081389;28;20043;-73
2021/05/08 08:36:15;;;;;;;7.68;3.88;;;13.10;99.90;;;;;;5067594;28;20028;-72
2021/05/08 08:38:41;;;;;;;7.45;3.10;;;13.20;99.90;;;;;;5073334;28;20041;-72
2021/05/08 08:41:07;;;;;;;6.85;3.25;;;13.30;99.90;;;;;;5066515;28;20047;-73
2021/05/08 08:43:32;;;;;;;4.93;3.22;;;13.30;99.90;;;;;;5079700;28;20044;-73
2021/05/08 08:46:00;;;;;;;7.43;3.88;;;13.30;99.90;;;;;;5067458;28;20066;-75
2021/05/08 08:48:26;;;;;;;6.55;3.05;;;13.40;99.90;;;;;;5062855;28;20478;-76
2021/05/08 08:50:52;;;;;;;5.55;3.13;;;13.60;99.90;;;;;;5068938;28;20031;-75
2021/05/08 08:53:18;;;;;;;6.75;4.07;;;13.70;99.90;;;;;;5072088;28;20021;-75
2021/05/08 08:55:53;;;;;;;6.00;2.75;;;13.80;99.90;;;;;;5072180;28;20033;-75
2021/05/08 08:58:24;;;;;;;4.80;2.83;;;13.90;99.90;;;;;;5068009;28;20031;-76
2021/05/08 09:00:50;;;;;;;16.87;4.70;;;14.10;99.90;;;;;;5062769;28;20024;-71
2021/05/08 09:03:16;;;;;;;6.53;2.83;;;14.10;99.90;;;;;;5067080;28;20290;-73
2021/05/08 09:05:42;;;;;;;5.70;3.05;;;14.10;99.90;;;;;;5067188;28;20051;-73
2021/05/08 09:08:08;;;;;;;4.78;2.80;;;13.90;99.90;;;;;;5064655;28;20090;-75
2021/05/08 09:10:34;;;;;;;5.30;2.95;;;13.90;99.90;;;;;;5055444;28;20051;-74
2021/05/08 09:13:03;;;;;;;6.18;3.33;;;14.10;99.90;;;;;;5073593;28;20029;-74
2021/05/08 09:15:29;;;;;;;5.18;3.30;;;14.10;99.90;;;;;;5069985;28;20448;-74
2021/05/08 09:17:55;;;;;;;4.45;3.05;;;14.20;99.90;;;;;;5068852;28;20035;-73
2021/05/08 09:20:21;;;;;;;6.32;3.55;;;14.30;99.90;;;;;;5042614;28;20024;-73
2021/05/08 09:22:46;;;;;;;5.90;3.05;;;14.40;99.90;;;;;;5070663;28;20393;-73
2021/05/08 09:25:17;;;;;;;5.50;2.67;;;14.30;99.60;;;;;;5058226;28;20029;-73
2021/05/08 09:27:58;;;;;;;4.55;2.78;;;14.50;99.90;;;;;;5063133;28;20378;-73
2021/05/08 09:30:28;;;;;;;5.47;2.90;;;14.60;99.90;;;;;;5066261;28;20048;-74
2021/05/08 09:33:00;;;;;;;6.05;2.85;;;14.50;99.90;;;;;;5051797;28;20382;-73
2021/05/08 09:35:35;;;;;;;6.85;3.65;;;14.60;99.90;;;;;;5052698;28;20025;-73
2021/05/08 09:38:12;;;;;;;6.15;2.65;;;14.60;99.90;;;;;;5081324;28;20071;-72
2021/05/08 09:40:39;;;;;;;5.38;2.78;;;14.60;99.90;;;;;;5079752;28;20107;-74
2021/05/08 09:43:13;;;;;;;5.50;3.05;;;14.70;99.90;;;;;;5071938;28;20013;-76
2021/05/08 09:45:41;;;;;;;5.35;3.05;;;14.60;99.20;;;;;;5068573;28;20013;-74
2021/05/08 09:48:37;;;;;;;5.68;2.85;;;14.60;99.80;;;;;;5063023;28;20032;-73
2021/05/08 09:51:26;;;;;;;10.35;4.30;;;14.70;99.70;;;;;;5055904;28;20048;-75
2021/05/08 09:53:53;;;;;;;5.18;2.67;;;14.70;99.90;;;;;;5050366;28;20889;-75
2021/05/08 09:56:38;;;;;;;3.53;2.53;;;14.80;99.90;;;;;;5069899;28;20039;-74
2021/05/08 09:59:23;;;;;;;4.53;2.67;;;14.80;99.90;;;;;;5074571;28;20073;-72
2021/05/08 10:02:02;;;;;;;4.10;2.38;;;14.80;99.90;;;;;;5067529;28;20028;-74
2021/05/08 10:04:28;;;;;;;6.32;2.53;;;14.70;99.90;;;;;;5063749;28;20384;-71
2021/05/08 10:07:14;;;;;;;2.95;2.33;;;14.60;99.90;;;;;;5073976;28;20040;-72
2021/05/08 10:09:42;;;;;;;4.30;2.47;;;14.50;99.90;;;;;;5081879;28;20048;-71
2021/05/08 10:12:10;;;;;;;5.22;2.78;;;14.60;99.90;;;;;;5076372;28;20021;-71
2021/05/08 10:14:38;;;;;;;6.00;2.47;;;14.40;99.90;;;;;;5077937;28;20054;-71
2021/05/08 10:17:04;;;;;;;4.82;2.10;;;14.40;99.90;;;;;;5069618;28;20059;-72
2021/05/08 10:19:32;;;;;;;4.15;2.17;;;14.40;99.90;;;;;;5066680;28;20024;-72
2021/05/08 10:22:00;;;;;;;4.30;2.70;;;14.50;99.90;;;;;;5072256;28;20028;-72
2021/05/08 10:24:26;;;;;;;5.00;2.53;;;14.60;99.90;;;;;;5054968;28;20028;-71
2021/05/08 10:26:59;;;;;;;2.40;1.42;;;14.60;99.90;;;;;;5067668;28;20036;-72
2021/05/08 10:29:27;;;;;;;3.20;1.88;;;14.40;99.90;;;;;;5081464;28;20032;-71
2021/05/08 10:31:55;;;;;;;1.70;1.60;;;14.40;99.90;;;;;;5069410;28;20032;-71
2021/05/08 10:34:51;;;;;;;3.25;1.92;;;14.40;99.90;;;;;;5067758;28;20060;-71
2021/05/08 10:37:17;;;;;;;2.60;2.10;;;14.40;99.90;;;;;;5061020;28;20044;-72
2021/05/08 10:40:04;;;;;;;4.72;1.92;;;14.30;99.90;;;;;;5053907;28;20028;-72
2021/05/08 10:42:37;;;;;;;4.80;1.98;;;14.40;99.90;;;;;;5069564;28;20049;-71
2021/05/08 10:45:15;;;;;;;3.65;1.90;;;14.50;99.90;;;;;;5069228;28;20020;-72
2021/05/08 10:47:53;;;;;;;2.15;1.52;;;14.50;99.90;;;;;;5067757;28;20057;-69
2021/05/08 10:50:34;;;;;;;8.85;2.33;;;14.30;99.90;;;;;;5070288;28;20089;-71
2021/05/08 10:53:07;;;;;;;4.97;1.70;;;14.30;99.90;;;;;;5075317;28;20025;-73
2021/05/08 10:55:51;;;;;;;5.13;1.90;;;14.20;99.90;;;;;;5059831;28;20028;-67
2021/05/08 10:58:17;;;;;;;5.72;2.35;;;14.20;99.90;;;;;;5074661;28;20032;-70
2021/05/08 11:00:50;;;;;;;3.72;2.10;;;14.20;99.90;;;;;;5050040;28;20020;-70
2021/05/08 11:03:17;;;;;;;6.13;2.20;;;14.20;99.90;;;;;;5047789;28;20026;-70
2021/05/08 11:06:03;;;;;;;2.90;1.80;;;14.20;99.90;;;;;;5071883;28;20369;-72
2021/05/08 11:08:29;;;;;;;5.07;2.22;;;14.20;99.90;;;;;;5066454;28;20127;-76
2021/05/08 11:11:06;;;;;;;2.88;2.00;;;14.10;99.90;;;;;;5068861;28;20607;-76
2021/05/08 11:13:46;;;;;;;5.60;2.03;;;14.00;99.90;;;;;;5069938;28;20115;-70
2021/05/08 11:16:17;;;;;;;3.35;2.28;;;14.00;99.90;;;;;;5082367;28;20009;-70
2021/05/08 11:18:47;;;;;;;2.55;2.10;;;13.90;99.90;;;;;;5072037;28;20032;-68
2021/05/08 11:21:13;;;;;;;2.67;2.03;;;13.90;99.90;;;;;;5067327;28;20481;-68
2021/05/08 11:23:41;;;;;;;4.95;2.10;;;13.80;99.90;;;;;;5070947;28;20043;-68
2021/05/08 11:26:26;;;;;;;2.80;2.03;;;13.90;99.90;;;;;;5071418;28;20048;-68
2021/05/08 11:29:25;;;;;;;2.25;1.80;;;13.90;99.90;;;;;;5073381;28;20385;-68
2021/05/08 11:31:55;;;;;;;3.05;2.22;;;13.90;99.90;;;;;;5064417;28;20625;-67
2021/05/08 11:34:26;;;;;;;4.15;2.80;;;13.90;99.90;;;;;;5070939;28;20020;-70
2021/05/08 11:37:00;;;;;;;6.82;2.30;;;13.90;99.90;;;;;;5069072;28;20055;-71
2021/05/08 11:39:36;;;;;;;3.15;2.05;;;14.10;99.90;;;;;;5073133;28;20074;-69
2021/05/08 11:42:13;;;;;;;7.63;2.53;;;14.00;99.90;;;;;;5072349;28;20033;-71
2021/05/08 11:44:40;;;;;;;3.13;2.10;;;14.00;99.90;;;;;;5068713;28;20025;-73
2021/05/08 11:47:30;;;;;;;3.85;2.80;;;14.00;99.90;;;;;;5071482;28;20021;-75
2021/05/08 11:50:00;;;;;;;4.85;2.95;;;13.90;99.90;;;;;;5056224;28;20385;-75
2021/05/08 11:52:32;;;;;;;2.63;2.10;;;14.10;99.90;;;;;;5069214;28;20408;-75
2021/05/08 11:54:57;;;;;;;6.27;2.37;;;14.20;99.90;;;;;;5072247;28;20610;-68
2021/05/08 11:57:23;;;;;;;4.75;2.70;;;14.20;99.90;;;;;;5069033;28;20027;-67
2021/05/08 11:59:49;;;;;;;7.65;4.43;;;14.10;99.90;;;;;;5071211;28;20029;-69
2021/05/08 12:02:23;;;;;;;3.45;2.53;;;14.10;99.90;;;;;;5065985;28;20174;-76
2021/05/08 12:04:51;;;;;;;2.88;2.58;;;14.10;99.90;;;;;;5069812;28;20020;-75
2021/05/08 12:07:25;;;;;;;2.63;2.30;;;14.20;99.90;;;;;;5050551;28;20020;-69
2021/05/08 12:09:52;;;;;;;4.25;2.45;;;14.20;99.90;;;;;;5068773;28;20513;-72
2021/05/08 12:12:18;;;;;;;3.08;2.40;;;14.20;99.90;;;;;;5069717;28;20081;-75
2021/05/08 12:14:46;;;;;;;3.53;2.70;;;14.10;99.90;;;;;;5070174;28;20017;-71
2021/05/08 12:17:13;;;;;;;5.00;2.28;;;14.10;99.90;;;;;;5068084;28;20021;-69
2021/05/08 12:19:42;;;;;;;3.47;2.75;;;14.20;99.90;;;;;;5071622;28;20555;-73
2021/05/08 12:22:09;;;;;;;7.45;3.00;;;14.10;99.90;;;;;;5044636;28;20462;-70
2021/05/08 12:24:35;;;;;;;4.68;2.20;;;14.20;99.90;;;;;;5072957;28;20388;-69
2021/05/08 12:27:01;;;;;;;5.97;3.20;;;14.40;99.90;;;;;;5066365;28;20033;-74
2021/05/08 12:29:36;;;;;;;4.43;2.80;;;14.50;99.90;;;;;;5064942;28;20037;-72
2021/05/08 12:32:13;;;;;;;4.50;2.90;;;14.50;99.90;;;;;;5072653;28;20027;-73
2021/05/08 12:34:39;;;;;;;3.50;2.38;;;14.60;99.90;;;;;;5067440;28;20048;-73
2021/05/08 12:37:05;;;;;;;4.15;3.05;;;14.60;99.90;;;;;;5052531;28;20055;-73
2021/05/08 12:39:31;;;;;;;4.63;2.80;;;14.60;99.90;;;;;;5070553;28;20036;-73
2021/05/08 12:41:59;;;;;;;6.95;2.78;;;14.70;99.90;;;;;;5076039;28;20107;-70
2021/05/08 12:44:35;;;;;;;4.00;2.40;;;14.70;99.90;;;;;;5077674;28;20056;-70
2021/05/08 12:47:19;;;;;;;3.88;2.70;;;14.80;99.90;;;;;;5068651;28;20549;-69